Time;durP1;ratioP1;P1;durP2;ratioP2;P2;SDS_P1;SDS_P2;PMS_P1;PMS_P2;Temp;Humidity;BMP_temperature;BMP_pressure;BME280_temperature;BME280_humidity;BME280_pressure;Samples;Min_cycle;Max_cycle;Signal;HPM_P1;HPM_P2
2021/04/10 00:00:48;;;;;;;5.45;2.95;;;4.70;55.70;;;;;;5097539;28;20055;-80
2021/04/10 00:03:14;;;;;;;7.13;3.20;;;4.70;55.80;;;;;;5098693;28;20019;-79
2021/04/10 00:05:52;;;;;;;4.97;3.20;;;4.70;56.00;;;;;;5080314;28;20057;-80
2021/04/10 00:08:18;;;;;;;6.57;3.80;;;4.60;56.10;;;;;;5098699;28;20039;-77
2021/04/10 00:10:44;;;;;;;9.55;3.45;;;4.60;56.20;;;;;;5111068;28;20394;-78
2021/04/10 00:13:10;;;;;;;8.98;3.38;;;4.60;56.40;;;;;;5089384;28;20024;-78
2021/04/10 00:15:36;;;;;;;4.38;3.00;;;4.60;56.40;;;;;;5060424;28;20501;-78
2021/04/10 00:18:02;;;;;;;5.05;3.00;;;4.60;56.50;;;;;;5086340;28;20016;-79
2021/04/10 00:20:27;;;;;;;8.20;3.13;;;4.50;56.60;;;;;;5084788;28;20055;-78
2021/04/10 00:22:53;;;;;;;4.32;3.45;;;4.50;56.60;;;;;;5078121;28;20066;-77
2021/04/10 00:25:20;;;;;;;4.68;3.72;;;4.60;56.80;;;;;;5078476;28;20481;-77
2021/04/10 00:27:46;;;;;;;4.28;2.90;;;4.50;56.70;;;;;;5078005;28;20103;-78
2021/04/10 00:30:14;;;;;;;5.28;3.40;;;4.50;56.70;;;;;;5078356;28;20170;-78
2021/04/10 00:32:40;;;;;;;;;;;4.50;56.90;;;;;;5073862;28;20028;-78
2021/04/10 00:35:07;;;;;;;7.25;3.33;;;4.40;56.60;;;;;;5074962;28;19908;-78
2021/04/10 00:37:34;;;;;;;4.43;2.87;;;4.30;57.20;;;;;;5074332;28;20060;-78
2021/04/10 00:39:59;;;;;;;5.10;2.83;;;4.30;57.40;;;;;;5068437;28;20429;-79
2021/04/10 00:42:25;;;;;;;4.38;3.05;;;4.30;57.60;;;;;;5093831;28;20039;-78
2021/04/10 00:44:51;;;;;;;7.75;3.75;;;4.30;57.70;;;;;;5090586;28;20020;-77
2021/04/10 00:47:17;;;;;;;5.47;3.75;;;4.20;57.80;;;;;;5093098;28;20047;-78
2021/04/10 00:49:43;;;;;;;7.97;3.40;;;4.20;57.80;;;;;;5079071;28;20462;-78
2021/04/10 00:52:13;;;;;;;7.65;3.25;;;4.20;58.00;;;;;;5092407;28;20024;-78
2021/04/10 00:54:40;;;;;;;20.45;3.72;;;4.10;58.10;;;;;;5089584;28;20021;-79
2021/04/10 00:57:06;;;;;;;11.48;4.05;;;4.10;58.30;;;;;;5090367;28;20507;-77
2021/04/10 00:59:42;;;;;;;6.45;3.47;;;4.00;58.30;;;;;;5074337;28;20029;-80
2021/04/10 01:02:08;;;;;;;5.88;2.90;;;4.00;58.70;;;;;;5069864;28;20020;-79
2021/04/10 01:04:34;;;;;;;5.38;3.35;;;4.00;58.80;;;;;;5090695;28;20020;-77
2021/04/10 01:07:00;;;;;;;6.03;3.50;;;4.00;58.90;;;;;;5090785;28;20020;-79
2021/04/10 01:09:26;;;;;;;5.07;3.28;;;4.00;59.00;;;;;;5082408;28;20412;-79
2021/04/10 01:11:52;;;;;;;4.13;3.17;;;3.90;59.10;;;;;;5087242;28;20040;-77
2021/04/10 01:14:44;;;;;;;4.82;2.95;;;3.90;59.30;;;;;;5094872;28;20388;-78
2021/04/10 01:17:15;;;;;;;6.25;3.22;;;3.90;59.40;;;;;;5094504;28;20095;-78
2021/04/10 01:20:05;;;;;;;12.45;4.65;;;3.90;59.70;;;;;;5094340;28;20540;-77
2021/04/10 01:23:08;;;;;;;7.95;3.17;;;3.80;59.80;;;;;;5094403;28;20020;-76
2021/04/10 01:25:52;;;;;;;7.20;3.38;;;3.80;60.00;;;;;;5076015;28;20020;-79
2021/04/10 01:28:49;;;;;;;5.50;2.88;;;3.70;60.30;;;;;;5094307;28;20394;-76
2021/04/10 01:31:22;;;;;;;7.63;3.60;;;3.70;60.50;;;;;;5080986;28;20027;-76
2021/04/10 01:33:52;;;;;;;5.93;3.60;;;3.60;60.60;;;;;;5094252;28;20048;-75
2021/04/10 01:36:23;;;;;;;9.63;3.75;;;3.60;60.90;;;;;;5094061;28;20043;-76
2021/04/10 01:38:52;;;;;;;6.18;3.35;;;3.60;61.20;;;;;;5094368;28;20020;-76
2021/04/10 01:41:19;;;;;;;5.18;3.17;;;3.60;61.20;;;;;;5094167;28;20097;-76
2021/04/10 01:43:45;;;;;;;;;;;3.60;61.40;;;;;;5094543;28;20032;-78
2021/04/10 01:46:13;;;;;;;7.10;3.03;;;3.60;61.00;;;;;;5094019;28;19904;-77
2021/04/10 01:48:44;;;;;;;10.20;3.78;;;3.50;61.50;;;;;;5094063;28;20054;-76
2021/04/10 01:51:11;;;;;;;4.80;2.90;;;3.50;61.60;;;;;;5075859;28;20051;-76
2021/04/10 01:53:39;;;;;;;7.28;3.45;;;3.50;61.80;;;;;;5075657;28;20437;-79
2021/04/10 01:56:06;;;;;;;5.13;3.30;;;3.50;61.90;;;;;;5093662;28;20028;-77
2021/04/10 01:58:34;;;;;;;10.20;3.58;;;3.40;62.00;;;;;;5093974;28;20016;-76
2021/04/10 02:01:00;;;;;;;5.90;3.17;;;3.40;62.20;;;;;;5094337;28;20024;-75
2021/04/10 02:03:27;;;;;;;6.13;3.20;;;3.40;62.20;;;;;;5093704;28;20034;-77
2021/04/10 02:05:54;;;;;;;5.38;3.17;;;3.40;62.40;;;;;;5093670;28;20020;-77
2021/04/10 02:08:20;;;;;;;8.40;3.50;;;3.30;62.50;;;;;;5093373;28;20020;-76
2021/04/10 02:10:47;;;;;;;7.97;3.85;;;3.40;62.60;;;;;;5107396;28;20048;-76
2021/04/10 02:13:14;;;;;;;4.88;3.38;;;3.30;62.80;;;;;;5093514;28;20052;-77
2021/04/10 02:15:41;;;;;;;9.80;4.03;;;3.30;62.80;;;;;;5093224;28;20099;-76
2021/04/10 02:18:07;;;;;;;7.00;3.47;;;3.30;62.90;;;;;;5089027;28;20031;-76
2021/04/10 02:20:33;;;;;;;4.97;2.95;;;3.30;63.00;;;;;;5093240;28;20021;-76
2021/04/10 02:22:59;;;;;;;7.35;3.38;;;3.30;63.10;;;;;;5075056;28;20043;-76
2021/04/10 02:25:26;;;;;;;6.45;3.50;;;3.30;63.30;;;;;;5074810;28;20139;-76
2021/04/10 02:27:53;;;;;;;5.45;3.08;;;3.20;63.30;;;;;;5074923;28;20039;-76
2021/04/10 02:30:20;;;;;;;11.13;3.70;;;3.30;63.40;;;;;;5093030;28;20548;-76
2021/04/10 02:33:13;;;;;;;6.32;3.42;;;3.20;63.40;;;;;;5093127;28;20020;-76
2021/04/10 02:35:55;;;;;;;9.38;4.28;;;3.20;63.50;;;;;;5074553;28;20576;-78
2021/04/10 02:38:22;;;;;;;6.15;3.67;;;3.20;63.70;;;;;;5074969;28;20016;-74
2021/04/10 02:40:59;;;;;;;7.82;3.75;;;3.10;63.80;;;;;;5092899;28;20020;-75
2021/04/10 02:43:28;;;;;;;6.35;3.70;;;3.20;64.00;;;;;;5093232;28;20362;-75
2021/04/10 02:46:00;;;;;;;5.43;3.30;;;3.20;64.10;;;;;;5092852;28;20365;-76
2021/04/10 02:48:32;;;;;;;11.93;4.57;;;3.20;64.10;;;;;;5092779;28;20085;-75
2021/04/10 02:51:00;;;;;;;13.88;3.78;;;3.20;64.20;;;;;;5092910;28;20016;-74
2021/04/10 02:53:25;;;;;;;;;;;3.20;64.30;;;;;;5075057;28;20051;-75
2021/04/10 02:55:57;;;;;;;6.60;3.42;;;3.20;64.00;;;;;;5092643;28;19946;-76
2021/04/10 02:58:25;;;;;;;9.50;3.95;;;3.20;64.50;;;;;;5075046;28;20432;-75
2021/04/10 03:00:54;;;;;;;6.13;3.80;;;3.20;64.50;;;;;;5085220;28;20074;-75
2021/04/10 03:03:22;;;;;;;6.80;3.80;;;3.10;64.60;;;;;;5074312;28;20512;-75
2021/04/10 03:05:48;;;;;;;;;;;3.20;64.60;;;;;;5074882;28;20031;-75
2021/04/10 03:08:22;;;;;;;8.23;3.80;;;3.20;64.20;;;;;;5092277;28;19919;-76
2021/04/10 03:10:52;;;;;;;10.68;3.92;;;3.30;64.50;;;;;;5069383;28;20051;-75
2021/04/10 03:13:19;;;;;;;5.45;3.47;;;3.40;64.40;;;;;;5099530;28;20016;-75
2021/04/10 03:15:49;;;;;;;9.57;4.50;;;3.40;64.40;;;;;;5074038;28;20020;-74
2021/04/10 03:18:16;;;;;;;8.77;4.68;;;3.40;64.30;;;;;;5092564;28;20013;-76
2021/04/10 03:20:44;;;;;;;7.18;3.22;;;3.50;64.20;;;;;;5092312;28;20393;-75
2021/04/10 03:23:10;;;;;;;;;;;3.50;64.10;;;;;;5092779;28;20381;-75
2021/04/10 03:25:36;;;;;;;13.63;3.50;;;3.50;63.80;;;;;;5092234;28;19982;-75
2021/04/10 03:28:04;;;;;;;9.60;3.88;;;3.60;64.10;;;;;;5092291;28;20034;-75
2021/04/10 03:30:30;;;;;;;6.93;4.00;;;3.60;64.00;;;;;;5092369;28;20063;-75
2021/04/10 03:32:56;;;;;;;8.73;3.83;;;3.70;63.80;;;;;;5092467;28;20012;-76
2021/04/10 03:35:28;;;;;;;9.88;5.15;;;3.70;63.80;;;;;;5092138;28;20043;-75
2021/04/10 03:37:56;;;;;;;8.55;4.20;;;3.80;63.70;;;;;;5092297;28;20024;-77
2021/04/10 03:40:22;;;;;;;11.95;5.45;;;3.80;63.60;;;;;;5074106;28;20102;-75
2021/04/10 03:42:48;;;;;;;15.27;5.78;;;3.80;64.30;;;;;;5092063;28;20570;-76
2021/04/10 03:45:16;;;;;;;15.38;5.50;;;3.90;63.80;;;;;;5092205;28;20024;-76
2021/04/10 03:47:44;;;;;;;15.55;6.50;;;3.90;63.70;;;;;;5091996;28;20073;-73
2021/04/10 03:50:11;;;;;;;14.10;6.13;;;3.90;63.80;;;;;;5092011;28;20565;-75
2021/04/10 03:52:37;;;;;;;16.10;6.47;;;4.00;63.60;;;;;;5073826;28;20405;-74
2021/04/10 03:55:04;;;;;;;15.00;6.63;;;4.00;63.50;;;;;;5074108;28;20073;-76
2021/04/10 03:57:32;;;;;;;15.18;6.50;;;4.10;63.50;;;;;;5092112;28;20024;-77
2021/04/10 03:59:59;;;;;;;12.82;5.57;;;4.10;63.40;;;;;;5073691;28;20118;-74
2021/04/10 04:02:26;;;;;;;12.97;5.67;;;4.10;63.40;;;;;;5092096;28;20024;-77
2021/04/10 04:04:52;;;;;;;8.95;4.85;;;4.10;63.30;;;;;;5092169;28;20089;-77
2021/04/10 04:07:18;;;;;;;10.50;5.30;;;4.10;63.10;;;;;;5073776;28;20020;-75
2021/04/10 04:09:44;;;;;;;15.25;4.47;;;4.20;63.10;;;;;;5092822;28;20063;-76
2021/04/10 04:12:10;;;;;;;6.97;4.47;;;4.30;62.60;;;;;;5093376;28;20063;-76
2021/04/10 04:14:37;;;;;;;7.32;4.35;;;4.30;62.40;;;;;;5069890;28;20067;-75
2021/04/10 04:17:04;;;;;;;9.05;4.47;;;4.40;62.10;;;;;;5091629;28;20078;-75
2021/04/10 04:19:31;;;;;;;9.43;3.85;;;4.40;62.10;;;;;;5095804;28;20016;-76
2021/04/10 04:21:57;;;;;;;9.95;4.15;;;4.50;61.60;;;;;;5097196;28;20028;-75
2021/04/10 04:24:23;;;;;;;7.45;3.38;;;4.50;61.50;;;;;;5097587;28;20020;-74
2021/04/10 04:26:49;;;;;;;8.98;4.55;;;4.60;61.60;;;;;;5095505;28;20388;-75
2021/04/10 04:29:14;;;;;;;8.38;4.40;;;4.90;61.40;;;;;;5095130;28;20086;-76
2021/04/10 04:31:40;;;;;;;13.07;4.07;;;5.30;60.50;;;;;;5095609;28;20027;-74
2021/04/10 04:34:06;;;;;;;10.95;4.05;;;5.80;59.20;;;;;;5095386;28;20028;-77
2021/04/10 04:36:32;;;;;;;6.07;3.63;;;6.30;57.60;;;;;;5094901;28;20032;-77
2021/04/10 04:38:57;;;;;;;8.27;3.85;;;6.70;56.70;;;;;;5095091;28;20125;-74
2021/04/10 04:41:23;;;;;;;8.30;4.40;;;7.20;54.90;;;;;;5076878;28;20528;-76
2021/04/10 04:43:49;;;;;;;10.90;4.70;;;7.60;54.00;;;;;;5082343;28;20036;-78
2021/04/10 04:46:15;;;;;;;10.50;5.03;;;8.20;52.40;;;;;;5078897;28;20028;-77
2021/04/10 04:48:41;;;;;;;10.75;4.55;;;8.60;51.40;;;;;;5095134;28;20518;-76
2021/04/10 04:51:07;;;;;;;8.35;4.40;;;9.00;50.30;;;;;;5094952;28;20024;-76
2021/04/10 04:53:33;;;;;;;11.45;4.93;;;9.50;48.90;;;;;;5094922;28;20108;-76
2021/04/10 04:55:59;;;;;;;10.27;4.88;;;9.80;47.60;;;;;;5094856;28;20055;-75
2021/04/10 04:58:25;;;;;;;9.15;4.93;;;10.20;46.30;;;;;;5091144;28;20071;-76
2021/04/10 05:00:50;;;;;;;9.20;4.57;;;10.10;45.80;;;;;;5087553;28;20039;-78
2021/04/10 05:03:16;;;;;;;6.20;3.53;;;10.40;45.70;;;;;;5094884;28;20020;-77
2021/04/10 05:05:42;;;;;;;11.52;3.97;;;10.30;44.90;;;;;;5076656;28;20051;-75
2021/04/10 05:08:08;;;;;;;7.38;3.63;;;9.70;45.40;;;;;;5094648;28;20059;-77
2021/04/10 05:10:34;;;;;;;8.30;4.20;;;9.40;46.10;;;;;;5090546;28;20025;-78
2021/04/10 05:13:00;;;;;;;4.85;3.30;;;9.60;46.60;;;;;;5076594;28;20033;-78
2021/04/10 05:15:27;;;;;;;9.07;4.43;;;10.00;45.30;;;;;;5070983;28;20072;-76
2021/04/10 05:17:53;;;;;;;8.68;4.93;;;10.20;44.90;;;;;;5056330;28;20036;-77
2021/04/10 05:20:18;;;;;;;5.47;3.75;;;11.00;44.20;;;;;;5055631;28;20025;-78
2021/04/10 05:22:44;;;;;;;7.07;4.00;;;11.60;42.10;;;;;;5074083;28;20043;-75
2021/04/10 05:25:10;;;;;;;7.28;4.05;;;11.70;41.60;;;;;;5074168;28;20504;-75
2021/04/10 05:27:36;;;;;;;8.50;3.33;;;11.80;41.10;;;;;;5074017;28;20024;-76
2021/04/10 05:30:03;;;;;;;4.97;3.33;;;11.60;41.10;;;;;;5073888;28;20138;-79
2021/04/10 05:32:29;;;;;;;4.45;3.58;;;11.00;41.50;;;;;;5070478;28;20077;-77
2021/04/10 05:34:55;;;;;;;4.47;3.00;;;10.30;42.50;;;;;;5064331;28;20497;-76
2021/04/10 05:37:21;;;;;;;7.40;3.33;;;9.40;43.70;;;;;;5068853;28;20024;-76
2021/04/10 05:39:47;;;;;;;9.10;3.60;;;8.80;45.20;;;;;;5055282;28;20095;-76
2021/04/10 05:42:13;;;;;;;6.70;3.33;;;8.50;46.20;;;;;;5073411;28;20036;-78
2021/04/10 05:44:39;;;;;;;7.10;3.70;;;8.40;46.70;;;;;;5066019;28;20498;-78
2021/04/10 05:47:05;;;;;;;8.57;4.00;;;8.20;47.00;;;;;;5073825;28;20025;-77
2021/04/10 05:49:31;;;;;;;5.65;3.28;;;8.20;47.50;;;;;;5070540;28;20066;-78
2021/04/10 05:51:57;;;;;;;6.50;2.90;;;8.00;47.70;;;;;;5073440;28;20051;-76
2021/04/10 05:54:22;;;;;;;5.57;3.08;;;7.90;47.40;;;;;;5073445;28;20138;-76
2021/04/10 05:56:48;;;;;;;8.48;3.35;;;8.40;47.70;;;;;;5073411;28;20027;-76
2021/04/10 05:59:14;;;;;;;8.50;3.45;;;9.90;45.90;;;;;;5056796;28;20039;-78
2021/04/10 06:01:40;;;;;;;4.60;2.53;;;11.50;42.80;;;;;;5058213;28;20024;-79
2021/04/10 06:04:06;;;;;;;7.70;3.53;;;12.70;39.40;;;;;;5073364;28;20037;-78
2021/04/10 06:06:32;;;;;;;5.65;3.20;;;13.40;38.00;;;;;;5072920;28;20095;-79
2021/04/10 06:08:57;;;;;;;5.35;2.50;;;14.30;36.50;;;;;;5072943;28;20111;-80
2021/04/10 06:11:23;;;;;;;6.28;3.42;;;14.30;35.40;;;;;;5077812;28;20028;-78
2021/04/10 06:13:52;;;;;;;4.63;3.13;;;14.60;35.60;;;;;;5087016;28;20085;-78
2021/04/10 06:16:18;;;;;;;5.00;3.03;;;15.50;34.20;;;;;;5092981;28;20019;-77
2021/04/10 06:18:43;;;;;;;5.45;2.80;;;15.50;33.30;;;;;;5089366;28;20021;-77
2021/04/10 06:21:09;;;;;;;4.05;2.63;;;16.10;32.70;;;;;;5093166;28;20024;-77
2021/04/10 06:23:35;;;;;;;4.10;2.60;;;16.40;32.10;;;;;;5092922;28;20024;-79
2021/04/10 06:26:01;;;;;;;5.10;2.42;;;16.50;31.90;;;;;;5082677;28;20020;-78
2021/04/10 06:28:27;;;;;;;6.60;2.60;;;17.10;31.70;;;;;;5093202;28;20511;-77
2021/04/10 06:30:52;;;;;;;5.65;2.83;;;17.80;30.30;;;;;;5091677;28;20093;-78
2021/04/10 06:33:21;;;;;;;9.35;2.97;;;18.60;29.80;;;;;;5091625;28;20016;-79
2021/04/10 06:35:47;;;;;;;4.95;2.70;;;18.60;29.10;;;;;;5092148;28;20016;-79
2021/04/10 06:38:13;;;;;;;5.88;2.83;;;18.70;29.10;;;;;;5092587;28;20095;-77
2021/04/10 06:40:40;;;;;;;4.65;2.80;;;18.80;29.00;;;;;;5092632;28;20032;-78
2021/04/10 06:43:06;;;;;;;8.82;2.90;;;18.80;28.40;;;;;;5092425;28;20385;-79
2021/04/10 06:45:32;;;;;;;4.25;2.80;;;17.60;29.10;;;;;;5093119;28;20078;-81
2021/04/10 06:48:02;;;;;;;4.30;2.50;;;17.20;29.50;;;;;;5092532;28;20065;-76
2021/04/10 06:50:29;;;;;;;6.68;2.67;;;17.10;30.10;;;;;;5093080;28;20107;-77
2021/04/10 06:52:57;;;;;;;3.63;2.42;;;17.80;29.20;;;;;;5092604;28;20024;-78
2021/04/10 06:55:24;;;;;;;4.93;2.85;;;18.10;29.70;;;;;;5092576;28;20019;-79
2021/04/10 06:58:03;;;;;;;;;;;18.80;29.20;;;;;;5093010;28;20016;-77
2021/04/10 07:00:31;;;;;;;4.25;2.72;;;19.60;29.30;;;;;;5081926;28;19904;-81
2021/04/10 07:02:58;;;;;;;5.70;2.88;;;18.50;28.10;;;;;;5092368;28;20129;-78
2021/04/10 07:05:24;;;;;;;4.05;3.13;;;18.90;28.40;;;;;;5092418;28;20515;-75
2021/04/10 07:07:51;;;;;;;2.95;1.80;;;18.90;28.20;;;;;;5092190;28;20105;-79
2021/04/10 07:10:17;;;;;;;5.28;2.65;;;19.20;27.60;;;;;;5092105;28;20032;-83
2021/04/10 07:12:44;;;;;;;2.17;1.42;;;18.40;28.40;;;;;;5084240;28;20059;-81
2021/04/10 07:15:12;;;;;;;10.10;2.33;;;18.60;27.90;;;;;;5086337;28;20473;-80
2021/04/10 07:17:39;;;;;;;3.65;2.25;;;18.60;28.00;;;;;;5079208;28;20143;-82
2021/04/10 07:20:28;;;;;;;12.32;2.17;;;19.30;27.40;;;;;;5093021;28;20087;-81
2021/04/10 07:23:13;;;;;;;5.57;2.53;;;18.80;27.60;;;;;;5068993;28;20028;-79
2021/04/10 07:25:44;;;;;;;4.95;2.10;;;19.50;27.50;;;;;;5073968;28;20453;-75
2021/04/10 07:28:21;;;;;;;3.10;1.77;;;19.30;26.70;;;;;;5088810;28;20094;-79
2021/04/10 07:31:00;;;;;;;4.90;2.28;;;18.70;26.90;;;;;;5078875;28;20115;-83
2021/04/10 07:33:30;;;;;;;5.95;2.50;;;18.40;27.60;;;;;;5067318;28;20432;-87
2021/04/10 07:35:56;;;;;;;7.53;2.22;;;19.10;27.10;;;;;;5078881;28;20027;-82
2021/04/10 07:38:33;;;;;;;9.02;2.08;;;19.70;26.60;;;;;;5071541;28;20016;-82
2021/04/10 07:40:59;;;;;;;;;;;20.00;26.40;;;;;;5094225;28;20097;-81
2021/04/10 07:43:36;;;;;;;8.60;2.72;;;19.10;26.60;;;;;;5080209;28;19912;-84
2021/04/10 07:46:22;;;;;;;4.78;2.10;;;18.40;27.30;;;;;;5086686;28;20028;-85
2021/04/10 07:49:11;;;;;;;17.13;3.47;;;18.90;27.60;;;;;;5060959;28;20032;-86
2021/04/10 07:51:52;;;;;;;6.05;2.13;;;20.20;27.20;;;;;;5089294;28;20024;-84
2021/04/10 07:54:29;;;;;;;2.33;1.75;;;20.10;25.80;;;;;;5079350;28;20025;-83
2021/04/10 07:56:56;;;;;;;;;;;20.20;25.90;;;;;;5080416;28;20190;-84
2021/04/10 07:59:22;;;;;;;6.20;2.25;;;19.70;26.90;;;;;;5087810;28;19959;-82
2021/04/10 08:01:48;;;;;;;12.88;2.28;;;20.20;25.80;;;;;;5098113;28;20385;-81
2021/04/10 08:04:15;;;;;;;4.82;1.92;;;21.10;25.50;;;;;;5083715;28;20086;-80
2021/04/10 08:07:00;;;;;;;12.90;2.80;;;20.50;25.00;;;;;;5085695;28;20020;-86
2021/04/10 08:09:30;;;;;;;4.55;2.05;;;20.90;25.90;;;;;;5093645;28;20067;-89
2021/04/10 08:11:56;;;;;;;8.13;2.55;;;21.10;25.00;;;;;;5082328;28;20047;-90
2021/04/10 08:14:22;;;;;;;4.60;2.20;;;21.20;25.20;;;;;;5080878;28;20050;-88
2021/04/10 08:16:50;;;;;;;8.93;2.63;;;21.90;24.60;;;;;;5109930;28;20089;-85
2021/04/10 08:19:26;;;;;;;8.52;1.98;;;20.50;25.10;;;;;;5097205;28;20015;-84
2021/04/10 08:21:53;;;;;;;9.55;2.80;;;20.00;25.90;;;;;;5107739;28;20027;-82
2021/04/10 08:24:22;;;;;;;10.90;2.50;;;20.50;25.40;;;;;;5113886;28;20020;-82
2021/04/10 08:26:49;;;;;;;9.25;2.35;;;20.00;25.50;;;;;;5103422;28;20054;-86
2021/04/10 08:29:15;;;;;;;7.65;2.08;;;20.30;25.30;;;;;;5113889;28;20035;-83
2021/04/10 08:31:41;;;;;;;11.45;2.03;;;21.60;25.00;;;;;;5116397;28;20041;-84
2021/04/10 08:34:07;;;;;;;2.67;1.48;;;22.90;24.30;;;;;;5114801;28;20020;-81
2021/04/10 08:36:33;;;;;;;7.28;1.88;;;23.50;23.30;;;;;;5115459;28;20073;-82
2021/04/10 08:39:00;;;;;;;6.53;2.17;;;23.80;23.10;;;;;;5101319;28;20024;-83
2021/04/10 08:41:30;;;;;;;16.45;3.05;;;23.30;22.60;;;;;;5115506;28;20024;-80
2021/04/10 08:43:57;;;;;;;7.90;2.35;;;23.20;23.00;;;;;;5125209;28;20036;-83
2021/04/10 08:46:25;;;;;;;3.00;1.55;;;22.50;22.80;;;;;;5118692;28;20421;-87
2021/04/10 08:48:55;;;;;;;6.97;2.35;;;20.60;23.00;;;;;;5107132;28;20031;-83
2021/04/10 08:51:24;;;;;;;6.70;2.30;;;18.90;25.20;;;;;;5081275;28;20011;-83
2021/04/10 08:53:52;;;;;;;9.82;2.50;;;18.90;24.90;;;;;;5097798;28;20028;-85
2021/04/10 08:56:23;;;;;;;11.70;2.80;;;19.50;25.10;;;;;;5098485;28;20024;-84
2021/04/10 08:58:50;;;;;;;10.35;1.80;;;20.50;24.20;;;;;;5098021;28;20024;-85
2021/04/10 09:01:22;;;;;;;6.90;2.42;;;20.00;23.90;;;;;;5094671;28;20103;-79
2021/04/10 09:03:48;;;;;;;10.32;3.25;;;20.30;24.80;;;;;;5094349;28;20016;-79
2021/04/10 09:06:23;;;;;;;5.25;2.20;;;21.70;24.00;;;;;;5108383;28;20372;-81
2021/04/10 09:08:51;;;;;;;9.18;2.50;;;23.10;23.20;;;;;;5094480;28;20066;-82
2021/04/10 09:11:21;;;;;;;6.40;2.17;;;22.00;22.80;;;;;;5076823;28;20538;-81
2021/04/10 09:13:50;;;;;;;6.40;2.03;;;21.90;23.10;;;;;;5094393;28;20114;-80
2021/04/10 09:16:26;;;;;;;7.35;2.15;;;22.00;23.00;;;;;;5094767;28;20411;-82
2021/04/10 09:19:11;;;;;;;9.47;2.13;;;22.50;22.80;;;;;;5095342;28;20043;-79
2021/04/10 09:21:53;;;;;;;6.63;2.72;;;22.20;22.80;;;;;;5095007;28;20035;-79
2021/04/10 09:24:37;;;;;;;11.23;2.67;;;22.60;22.90;;;;;;5086508;28;20073;-81
2021/04/10 09:27:06;;;;;;;4.13;2.00;;;23.60;22.40;;;;;;5094335;28;20476;-79
2021/04/10 09:29:37;;;;;;;9.70;2.58;;;24.40;21.70;;;;;;5090179;28;20493;-80
2021/04/10 09:32:03;;;;;;;10.75;3.40;;;24.90;21.70;;;;;;5077407;28;20103;-82
2021/04/10 09:34:49;;;;;;;13.63;3.17;;;24.50;21.40;;;;;;5081621;28;20024;-80
2021/04/10 09:37:21;;;;;;;4.32;2.00;;;24.70;21.80;;;;;;5078199;28;20025;-85
2021/04/10 09:39:51;;;;;;;7.78;2.35;;;23.50;21.70;;;;;;5080770;28;20124;-82
2021/04/10 09:45:15;;;;;;;2.13;1.38;;;22.60;22.10;;;;;;5075868;28;20020;-80
2021/04/10 09:48:00;;;;;;;4.78;1.58;;;21.30;22.10;;;;;;5080013;28;20028;-82
2021/04/10 09:50:39;;;;;;;8.50;2.38;;;20.30;22.80;;;;;;5051506;28;20090;-85
2021/04/10 09:53:11;;;;;;;7.15;3.47;;;19.60;23.80;;;;;;5081192;28;20392;-82
2021/04/10 09:55:38;;;;;;;3.30;1.80;;;18.90;24.70;;;;;;5077622;28;20016;-79
2021/04/10 09:58:10;;;;;;;4.70;2.95;;;19.10;24.30;;;;;;5077174;28;20013;-80
2021/04/10 10:00:47;;;;;;;6.95;2.60;;;20.00;23.80;;;;;;5067909;28;20039;-83
2021/04/10 10:03:15;;;;;;;6.95;2.95;;;20.40;23.90;;;;;;5083175;28;20016;-79
2021/04/10 10:05:44;;;;;;;5.60;2.72;;;20.40;23.50;;;;;;5080812;28;20025;-82
2021/04/10 10:08:14;;;;;;;4.38;2.30;;;20.70;23.50;;;;;;5096127;28;20137;-81
2021/04/10 10:10:45;;;;;;;4.93;2.22;;;20.60;23.30;;;;;;5095950;28;20069;-81
2021/04/10 10:13:16;;;;;;;2.80;1.95;;;20.50;23.40;;;;;;5094260;28;20488;-79
2021/04/10 10:15:44;;;;;;;4.45;2.00;;;21.30;23.20;;;;;;5093361;28;20362;-80
2021/04/10 10:18:19;;;;;;;8.93;2.38;;;20.20;23.20;;;;;;5094134;28;20028;-84
2021/04/10 10:21:21;;;;;;;3.17;1.95;;;19.40;23.80;;;;;;5093458;28;20385;-84
2021/04/10 10:23:56;;;;;;;4.80;1.90;;;19.40;23.60;;;;;;5077394;28;20055;-84
2021/04/10 10:26:29;;;;;;;7.72;1.75;;;18.00;24.30;;;;;;5081100;28;20020;-81
2021/04/10 10:29:14;;;;;;;12.10;2.47;;;16.70;25.70;;;;;;5076825;28;20032;-80
2021/04/10 10:32:10;;;;;;;7.45;2.28;;;16.10;26.60;;;;;;5074970;28;20067;-83
2021/04/10 10:34:35;;;;;;;10.82;2.55;;;15.30;27.50;;;;;;5052095;28;20040;-82
2021/04/10 10:37:05;;;;;;;3.92;1.90;;;14.80;28.40;;;;;;5074053;28;20035;-81
2021/04/10 10:39:33;;;;;;;4.22;3.03;;;14.40;28.80;;;;;;5074242;28;20477;-83
2021/04/10 10:42:03;;;;;;;;;;;13.70;29.10;;;;;;5074938;28;20056;-86
2021/04/10 10:44:29;;;;;;;9.73;2.67;;;13.60;28.70;;;;;;5080001;28;19948;-85
2021/04/10 10:47:06;;;;;;;2.90;2.10;;;13.60;30.00;;;;;;5059100;28;20040;-82
2021/04/10 10:49:33;;;;;;;5.10;2.92;;;13.30;29.30;;;;;;5090229;28;20497;-82
2021/04/10 10:51:59;;;;;;;6.55;2.47;;;13.00;29.90;;;;;;5089023;28;20067;-83
2021/04/10 10:54:36;;;;;;;9.48;3.97;;;12.90;29.90;;;;;;5091106;28;20094;-85
2021/04/10 10:57:20;;;;;;;6.72;2.58;;;13.10;30.10;;;;;;5088557;28;20025;-83
2021/04/10 10:59:46;;;;;;;7.50;2.50;;;13.20;30.10;;;;;;5091021;28;20073;-85
2021/04/10 11:02:18;;;;;;;4.68;2.10;;;13.00;30.40;;;;;;5083717;28;20029;-85
2021/04/10 11:04:47;;;;;;;6.35;2.30;;;12.90;31.20;;;;;;5085394;28;20024;-85
2021/04/10 11:07:33;;;;;;;2.25;1.35;;;12.80;30.80;;;;;;5076531;28;20029;-86
2021/04/10 11:09:59;;;;;;;4.78;2.13;;;12.30;30.60;;;;;;5088939;28;20477;-83
2021/04/10 11:12:26;;;;;;;4.47;1.83;;;11.90;31.30;;;;;;5084823;28;20135;-84
2021/04/10 11:14:59;;;;;;;4.57;2.13;;;11.90;31.90;;;;;;5077332;28;20100;-83
2021/04/10 11:17:30;;;;;;;4.78;2.03;;;11.90;32.30;;;;;;5099238;28;20157;-83
2021/04/10 11:19:58;;;;;;;9.20;2.55;;;12.10;32.40;;;;;;5093881;28;20207;-85
2021/04/10 11:22:24;;;;;;;2.72;1.48;;;12.20;32.60;;;;;;5095915;28;20039;-84
2021/04/10 11:24:51;;;;;;;12.35;2.33;;;12.10;31.70;;;;;;5094774;28;20028;-85
2021/04/10 11:27:21;;;;;;;4.13;2.53;;;12.10;32.20;;;;;;5079205;28;20430;-85
2021/04/10 11:29:53;;;;;;;3.15;1.48;;;12.10;31.30;;;;;;5106140;28;20508;-84
2021/04/10 11:32:23;;;;;;;5.28;3.30;;;12.00;31.90;;;;;;5104673;28;20082;-87
2021/04/10 11:35:02;;;;;;;6.93;2.25;;;12.00;32.40;;;;;;5084121;28;20448;-85
2021/04/10 11:37:30;;;;;;;6.22;2.10;;;12.10;32.30;;;;;;5094359;28;20024;-82
2021/04/10 11:40:01;;;;;;;5.43;2.55;;;12.20;32.10;;;;;;5083165;28;20016;-81
2021/04/10 11:42:41;;;;;;;6.55;2.28;;;12.10;31.70;;;;;;5108565;28;20016;-81
2021/04/10 11:45:32;;;;;;;6.53;2.70;;;12.10;32.00;;;;;;5108885;28;20404;-80
2021/04/10 11:48:18;;;;;;;6.07;2.08;;;12.20;32.20;;;;;;5085126;28;20097;-79
2021/04/10 11:50:56;;;;;;;4.60;2.75;;;12.20;31.70;;;;;;5104288;28;20027;-80
2021/04/10 11:53:38;;;;;;;8.45;2.78;;;12.20;31.70;;;;;;5067847;28;20021;-82
2021/04/10 11:56:26;;;;;;;3.90;2.08;;;12.30;32.20;;;;;;5100586;28;20008;-82
2021/04/10 11:59:05;;;;;;;4.63;2.03;;;12.30;31.50;;;;;;5078368;28;20039;-83
2021/04/10 12:01:31;;;;;;;10.38;3.63;;;12.30;31.70;;;;;;5102559;28;20029;-80
2021/04/10 12:04:02;;;;;;;3.65;2.40;;;12.40;32.10;;;;;;5106582;28;20027;-79
2021/04/10 12:06:32;;;;;;;6.63;3.00;;;12.40;31.70;;;;;;5103289;28;20114;-81
2021/04/10 12:09:06;;;;;;;13.45;3.03;;;12.30;32.00;;;;;;5101088;28;20120;-80
2021/04/10 12:11:33;;;;;;;11.63;2.40;;;12.10;32.40;;;;;;5094833;28;20103;-80
2021/04/10 12:13:59;;;;;;;7.97;2.22;;;12.10;32.40;;;;;;5094222;28;20020;-80
2021/04/10 12:16:25;;;;;;;7.72;2.67;;;12.20;32.30;;;;;;5073025;28;20039;-80
2021/04/10 12:18:52;;;;;;;5.35;2.33;;;12.30;32.40;;;;;;5089909;28;20024;-81
2021/04/10 12:21:18;;;;;;;7.30;2.10;;;12.20;31.70;;;;;;5068857;28;20051;-81
2021/04/10 12:23:44;;;;;;;9.30;2.78;;;12.00;32.30;;;;;;5067901;28;20021;-83
2021/04/10 12:26:09;;;;;;;2.42;1.73;;;12.00;32.60;;;;;;5076976;28;20047;-79
2021/04/10 12:28:36;;;;;;;3.60;1.83;;;12.00;32.30;;;;;;5083892;28;20511;-80
2021/04/10 12:31:09;;;;;;;5.80;2.88;;;11.80;32.50;;;;;;5074990;28;20385;-79
2021/04/10 12:33:39;;;;;;;11.05;3.58;;;11.70;33.20;;;;;;5077443;28;20025;-81
2021/04/10 12:36:06;;;;;;;10.07;4.25;;;11.80;32.90;;;;;;5089641;28;20023;-79
2021/04/10 12:38:32;;;;;;;9.40;3.85;;;11.80;32.90;;;;;;5089430;28;20504;-82
2021/04/10 12:40:58;;;;;;;5.97;3.00;;;11.90;32.50;;;;;;5087380;28;20036;-82
2021/04/10 12:43:24;;;;;;;6.00;2.83;;;12.00;32.30;;;;;;5083022;28;20028;-81
2021/04/10 12:45:49;;;;;;;10.95;5.25;;;12.00;31.70;;;;;;5061848;28;20125;-82
2021/04/10 12:48:15;;;;;;;12.43;2.83;;;12.40;32.30;;;;;;5064676;28;20377;-82
2021/04/10 12:50:41;;;;;;;5.05;2.00;;;12.80;31.30;;;;;;5079002;28;20489;-81
2021/04/10 12:53:07;;;;;;;3.60;2.28;;;13.00;30.60;;;;;;5078235;28;20111;-82
2021/04/10 12:55:33;;;;;;;5.65;2.45;;;13.00;30.80;;;;;;5077129;28;20041;-80
2021/04/10 12:57:59;;;;;;;4.88;2.30;;;12.80;30.90;;;;;;5077864;28;20020;-80
2021/04/10 13:00:25;;;;;;;8.23;2.30;;;12.60;30.90;;;;;;5075368;28;20083;-82
2021/04/10 13:02:51;;;;;;;7.20;2.42;;;12.40;31.50;;;;;;5076743;28;20043;-85
2021/04/10 13:05:18;;;;;;;5.07;2.80;;;12.30;31.50;;;;;;5058129;28;20496;-83
2021/04/10 13:07:43;;;;;;;3.88;1.90;;;12.40;31.60;;;;;;5076520;28;20025;-83